sensor_id;sensor_type;location;lat;lon;timestamp;P1;durP1;ratioP1;P2;durP2;ratioP2
21731;SDS011;11028;51.156;17.130;2022-12-18T00:01:28;50.97;;;15.80;;
21731;SDS011;11028;51.156;17.130;2022-12-18T00:08:50;41.87;;;14.67;;
21731;SDS011;11028;51.156;17.130;2022-12-18T00:16:12;53.92;;;15.50;;
21731;SDS011;11028;51.156;17.130;2022-12-18T00:23:35;48.40;;;16.23;;
21731;SDS011;11028;51.156;17.130;2022-12-18T00:30:59;51.78;;;16.45;;
21731;SDS011;11028;51.156;17.130;2022-12-18T00:38:21;46.85;;;15.38;;
21731;SDS011;11028;51.156;17.130;2022-12-18T00:45:40;45.78;;;16.65;;
21731;SDS011;11028;51.156;17.130;2022-12-18T00:52:59;60.08;;;17.67;;
21731;SDS011;11028;51.156;17.130;2022-12-18T01:00:22;48.67;;;16.17;;
21731;SDS011;11028;51.156;17.130;2022-12-18T01:07:42;56.63;;;15.85;;
21731;SDS011;11028;51.156;17.130;2022-12-18T01:15:02;47.22;;;16.50;;
21731;SDS011;11028;51.156;17.130;2022-12-18T01:22:22;58.85;;;18.02;;
21731;SDS011;11028;51.156;17.130;2022-12-18T01:29:41;51.72;;;16.15;;
21731;SDS011;11028;51.156;17.130;2022-12-18T01:37:08;50.72;;;17.23;;
21731;SDS011;11028;51.156;17.130;2022-12-18T01:52:31;45.88;;;16.05;;
21731;SDS011;11028;51.156;17.130;2022-12-18T01:59:52;54.40;;;18.17;;
21731;SDS011;11028;51.156;17.130;2022-12-18T02:07:12;48.42;;;17.13;;
21731;SDS011;11028;51.156;17.130;2022-12-18T02:14:37;52.42;;;17.25;;
21731;SDS011;11028;51.156;17.130;2022-12-18T02:22:02;53.05;;;16.85;;
21731;SDS011;11028;51.156;17.130;2022-12-18T02:36:56;52.25;;;15.68;;
21731;SDS011;11028;51.156;17.130;2022-12-18T02:44:19;44.50;;;15.45;;
21731;SDS011;11028;51.156;17.130;2022-12-18T02:51:42;52.65;;;14.77;;
21731;SDS011;11028;51.156;17.130;2022-12-18T02:59:07;44.75;;;16.08;;
21731;SDS011;11028;51.156;17.130;2022-12-18T03:06:39;38.73;;;14.83;;
21731;SDS011;11028;51.156;17.130;2022-12-18T03:14:01;39.25;;;13.88;;
21731;SDS011;11028;51.156;17.130;2022-12-18T03:21:25;44.90;;;13.70;;
21731;SDS011;11028;51.156;17.130;2022-12-18T03:28:50;41.75;;;14.93;;
21731;SDS011;11028;51.156;17.130;2022-12-18T03:36:11;39.67;;;14.55;;
21731;SDS011;11028;51.156;17.130;2022-12-18T03:43:34;39.70;;;14.18;;
21731;SDS011;11028;51.156;17.130;2022-12-18T03:51:02;35.90;;;13.73;;
21731;SDS011;11028;51.156;17.130;2022-12-18T03:58:25;43.47;;;14.27;;
21731;SDS011;11028;51.156;17.130;2022-12-18T04:06:02;42.15;;;15.27;;
21731;SDS011;11028;51.156;17.130;2022-12-18T04:13:22;47.45;;;15.85;;
21731;SDS011;11028;51.156;17.130;2022-12-18T04:20:44;37.03;;;16.08;;
21731;SDS011;11028;51.156;17.130;2022-12-18T04:28:03;53.60;;;17.15;;
21731;SDS011;11028;51.156;17.130;2022-12-18T04:35:23;48.55;;;16.13;;
21731;SDS011;11028;51.156;17.130;2022-12-18T04:42:41;41.95;;;14.05;;
21731;SDS011;11028;51.156;17.130;2022-12-18T04:50:01;43.17;;;15.73;;
21731;SDS011;11028;51.156;17.130;2022-12-18T04:57:19;42.10;;;15.60;;
21731;SDS011;11028;51.156;17.130;2022-12-18T05:04:37;42.47;;;14.93;;
21731;SDS011;11028;51.156;17.130;2022-12-18T05:11:57;44.80;;;17.25;;
21731;SDS011;11028;51.156;17.130;2022-12-18T05:19:16;41.83;;;16.02;;
21731;SDS011;11028;51.156;17.130;2022-12-18T05:26:34;54.17;;;17.35;;
21731;SDS011;11028;51.156;17.130;2022-12-18T05:33:54;43.33;;;16.00;;
21731;SDS011;11028;51.156;17.130;2022-12-18T05:41:12;52.92;;;17.08;;
21731;SDS011;11028;51.156;17.130;2022-12-18T05:48:30;47.40;;;16.98;;
21731;SDS011;11028;51.156;17.130;2022-12-18T05:55:50;52.60;;;17.35;;
21731;SDS011;11028;51.156;17.130;2022-12-18T06:03:08;56.10;;;18.38;;
21731;SDS011;11028;51.156;17.130;2022-12-18T06:10:27;50.00;;;15.57;;
21731;SDS011;11028;51.156;17.130;2022-12-18T06:17:47;46.45;;;14.77;;
21731;SDS011;11028;51.156;17.130;2022-12-18T06:25:05;48.75;;;16.90;;
21731;SDS011;11028;51.156;17.130;2022-12-18T06:32:24;50.33;;;16.77;;
21731;SDS011;11028;51.156;17.130;2022-12-18T06:39:44;46.30;;;15.63;;
21731;SDS011;11028;51.156;17.130;2022-12-18T06:47:04;44.00;;;16.17;;
21731;SDS011;11028;51.156;17.130;2022-12-18T06:54:22;49.50;;;17.00;;
21731;SDS011;11028;51.156;17.130;2022-12-18T07:01:42;46.58;;;16.30;;
21731;SDS011;11028;51.156;17.130;2022-12-18T07:09:00;60.10;;;23.58;;
21731;SDS011;11028;51.156;17.130;2022-12-18T07:16:19;55.50;;;19.17;;
21731;SDS011;11028;51.156;17.130;2022-12-18T07:23:42;49.07;;;19.17;;
21731;SDS011;11028;51.156;17.130;2022-12-18T07:31:02;59.47;;;20.40;;
21731;SDS011;11028;51.156;17.130;2022-12-18T07:38:20;59.42;;;22.60;;
21731;SDS011;11028;51.156;17.130;2022-12-18T07:45:40;64.25;;;21.85;;
21731;SDS011;11028;51.156;17.130;2022-12-18T07:52:59;64.78;;;24.60;;
21731;SDS011;11028;51.156;17.130;2022-12-18T08:00:20;64.88;;;25.15;;
21731;SDS011;11028;51.156;17.130;2022-12-18T08:07:39;80.45;;;29.10;;
21731;SDS011;11028;51.156;17.130;2022-12-18T08:14:58;66.07;;;23.85;;
21731;SDS011;11028;51.156;17.130;2022-12-18T08:22:16;67.75;;;23.95;;
21731;SDS011;11028;51.156;17.130;2022-12-18T08:29:36;65.00;;;23.80;;
21731;SDS011;11028;51.156;17.130;2022-12-18T08:36:54;61.60;;;21.88;;
21731;SDS011;11028;51.156;17.130;2022-12-18T08:44:12;52.08;;;21.13;;
21731;SDS011;11028;51.156;17.130;2022-12-18T08:51:50;53.90;;;21.70;;
21731;SDS011;11028;51.156;17.130;2022-12-18T08:59:12;46.50;;;20.08;;
21731;SDS011;11028;51.156;17.130;2022-12-18T09:13:55;50.83;;;19.27;;
21731;SDS011;11028;51.156;17.130;2022-12-18T09:21:19;50.40;;;19.95;;
21731;SDS011;11028;51.156;17.130;2022-12-18T09:28:38;40.05;;;19.98;;
21731;SDS011;11028;51.156;17.130;2022-12-18T09:36:00;46.60;;;17.70;;
21731;SDS011;11028;51.156;17.130;2022-12-18T09:43:20;44.45;;;17.80;;
21731;SDS011;11028;51.156;17.130;2022-12-18T09:50:41;43.50;;;17.45;;
21731;SDS011;11028;51.156;17.130;2022-12-18T09:58:02;50.75;;;20.73;;
21731;SDS011;11028;51.156;17.130;2022-12-18T10:05:26;50.33;;;18.25;;
21731;SDS011;11028;51.156;17.130;2022-12-18T10:12:51;45.20;;;17.85;;
21731;SDS011;11028;51.156;17.130;2022-12-18T10:20:23;46.30;;;18.42;;
21731;SDS011;11028;51.156;17.130;2022-12-18T10:27:43;55.75;;;20.13;;
21731;SDS011;11028;51.156;17.130;2022-12-18T10:35:08;44.72;;;19.90;;
21731;SDS011;11028;51.156;17.130;2022-12-18T10:42:33;60.55;;;20.27;;
21731;SDS011;11028;51.156;17.130;2022-12-18T10:49:52;54.22;;;21.83;;
21731;SDS011;11028;51.156;17.130;2022-12-18T10:57:15;46.83;;;19.85;;
21731;SDS011;11028;51.156;17.130;2022-12-18T11:04:36;49.92;;;21.08;;
21731;SDS011;11028;51.156;17.130;2022-12-18T11:12:15;51.38;;;20.88;;
21731;SDS011;11028;51.156;17.130;2022-12-18T11:19:37;64.47;;;21.95;;
21731;SDS011;11028;51.156;17.130;2022-12-18T11:26:57;58.20;;;20.20;;
21731;SDS011;11028;51.156;17.130;2022-12-18T11:34:18;52.08;;;20.95;;
21731;SDS011;11028;51.156;17.130;2022-12-18T11:41:48;66.47;;;22.65;;
21731;SDS011;11028;51.156;17.130;2022-12-18T11:49:28;65.63;;;22.70;;
21731;SDS011;11028;51.156;17.130;2022-12-18T11:56:53;60.08;;;21.95;;
21731;SDS011;11028;51.156;17.130;2022-12-18T12:11:58;64.55;;;25.50;;
21731;SDS011;11028;51.156;17.130;2022-12-18T12:19:27;72.50;;;25.08;;
21731;SDS011;11028;51.156;17.130;2022-12-18T12:26:53;52.30;;;21.95;;
21731;SDS011;11028;51.156;17.130;2022-12-18T12:34:19;54.20;;;20.80;;
21731;SDS011;11028;51.156;17.130;2022-12-18T12:41:39;62.00;;;23.38;;
21731;SDS011;11028;51.156;17.130;2022-12-18T12:49:18;59.95;;;22.55;;
21731;SDS011;11028;51.156;17.130;2022-12-18T12:56:44;59.13;;;20.92;;
21731;SDS011;11028;51.156;17.130;2022-12-18T13:04:12;62.55;;;21.13;;
21731;SDS011;11028;51.156;17.130;2022-12-18T13:11:39;56.67;;;22.35;;
21731;SDS011;11028;51.156;17.130;2022-12-18T13:19:21;59.92;;;19.77;;
21731;SDS011;11028;51.156;17.130;2022-12-18T13:26:43;59.80;;;21.60;;
21731;SDS011;11028;51.156;17.130;2022-12-18T13:34:09;65.43;;;21.50;;
21731;SDS011;11028;51.156;17.130;2022-12-18T13:41:44;60.40;;;21.25;;
21731;SDS011;11028;51.156;17.130;2022-12-18T13:49:05;57.95;;;19.35;;
21731;SDS011;11028;51.156;17.130;2022-12-18T13:56:42;63.47;;;23.25;;
21731;SDS011;11028;51.156;17.130;2022-12-18T14:04:12;71.43;;;24.52;;
21731;SDS011;11028;51.156;17.130;2022-12-18T14:11:36;72.70;;;23.85;;
21731;SDS011;11028;51.156;17.130;2022-12-18T14:18:55;63.67;;;23.85;;
21731;SDS011;11028;51.156;17.130;2022-12-18T14:26:24;75.57;;;26.73;;
21731;SDS011;11028;51.156;17.130;2022-12-18T14:33:44;85.32;;;27.15;;
21731;SDS011;11028;51.156;17.130;2022-12-18T14:41:03;76.97;;;26.10;;
21731;SDS011;11028;51.156;17.130;2022-12-18T14:48:25;88.13;;;30.23;;
21731;SDS011;11028;51.156;17.130;2022-12-18T14:55:51;92.13;;;31.45;;
21731;SDS011;11028;51.156;17.130;2022-12-18T15:03:09;82.32;;;29.80;;
21731;SDS011;11028;51.156;17.130;2022-12-18T15:10:30;84.75;;;28.70;;
21731;SDS011;11028;51.156;17.130;2022-12-18T15:17:49;106.20;;;35.25;;
21731;SDS011;11028;51.156;17.130;2022-12-18T15:25:21;82.85;;;27.75;;
21731;SDS011;11028;51.156;17.130;2022-12-18T15:32:46;74.43;;;27.00;;
21731;SDS011;11028;51.156;17.130;2022-12-18T15:40:05;92.32;;;30.73;;
21731;SDS011;11028;51.156;17.130;2022-12-18T15:47:25;80.00;;;27.10;;
21731;SDS011;11028;51.156;17.130;2022-12-18T15:54:45;85.97;;;28.85;;
21731;SDS011;11028;51.156;17.130;2022-12-18T16:02:21;94.00;;;30.95;;
21731;SDS011;11028;51.156;17.130;2022-12-18T16:09:41;77.35;;;25.75;;
21731;SDS011;11028;51.156;17.130;2022-12-18T16:17:05;79.90;;;28.77;;
21731;SDS011;11028;51.156;17.130;2022-12-18T16:24:31;79.53;;;28.42;;
21731;SDS011;11028;51.156;17.130;2022-12-18T16:31:51;88.03;;;30.67;;
21731;SDS011;11028;51.156;17.130;2022-12-18T16:39:11;78.80;;;27.88;;
21731;SDS011;11028;51.156;17.130;2022-12-18T16:46:29;68.68;;;26.42;;
21731;SDS011;11028;51.156;17.130;2022-12-18T16:53:48;80.07;;;26.38;;
21731;SDS011;11028;51.156;17.130;2022-12-18T17:01:08;84.35;;;30.10;;
21731;SDS011;11028;51.156;17.130;2022-12-18T17:08:27;95.10;;;33.10;;
21731;SDS011;11028;51.156;17.130;2022-12-18T17:15:45;98.75;;;32.75;;
21731;SDS011;11028;51.156;17.130;2022-12-18T17:23:05;99.03;;;33.97;;
21731;SDS011;11028;51.156;17.130;2022-12-18T17:30:24;103.28;;;35.65;;
21731;SDS011;11028;51.156;17.130;2022-12-18T17:37:44;104.97;;;38.03;;
21731;SDS011;11028;51.156;17.130;2022-12-18T17:45:06;127.18;;;39.55;;
21731;SDS011;11028;51.156;17.130;2022-12-18T17:52:25;97.28;;;35.90;;
21731;SDS011;11028;51.156;17.130;2022-12-18T17:59:44;115.68;;;37.25;;
21731;SDS011;11028;51.156;17.130;2022-12-18T18:07:04;113.68;;;38.38;;
21731;SDS011;11028;51.156;17.130;2022-12-18T18:14:22;122.40;;;39.35;;
21731;SDS011;11028;51.156;17.130;2022-12-18T18:21:44;133.05;;;40.42;;
21731;SDS011;11028;51.156;17.130;2022-12-18T18:29:05;123.40;;;40.72;;
21731;SDS011;11028;51.156;17.130;2022-12-18T18:36:27;147.18;;;43.42;;
21731;SDS011;11028;51.156;17.130;2022-12-18T18:43:47;128.18;;;42.40;;
21731;SDS011;11028;51.156;17.130;2022-12-18T18:51:07;146.68;;;43.95;;
21731;SDS011;11028;51.156;17.130;2022-12-18T18:58:29;137.25;;;44.70;;
21731;SDS011;11028;51.156;17.130;2022-12-18T19:05:49;165.55;;;48.15;;
21731;SDS011;11028;51.156;17.130;2022-12-18T19:13:10;145.52;;;46.30;;
21731;SDS011;11028;51.156;17.130;2022-12-18T19:20:42;162.35;;;49.10;;
21731;SDS011;11028;51.156;17.130;2022-12-18T19:28:01;194.73;;;53.03;;
21731;SDS011;11028;51.156;17.130;2022-12-18T19:35:21;188.75;;;54.78;;
21731;SDS011;11028;51.156;17.130;2022-12-18T19:42:39;175.50;;;51.55;;
21731;SDS011;11028;51.156;17.130;2022-12-18T19:49:58;163.98;;;51.00;;
21731;SDS011;11028;51.156;17.130;2022-12-18T19:57:17;171.35;;;50.95;;
21731;SDS011;11028;51.156;17.130;2022-12-18T20:04:36;171.48;;;50.97;;
21731;SDS011;11028;51.156;17.130;2022-12-18T20:11:54;158.23;;;49.17;;
21731;SDS011;11028;51.156;17.130;2022-12-18T20:19:13;190.80;;;53.35;;
21731;SDS011;11028;51.156;17.130;2022-12-18T20:26:38;166.10;;;51.58;;
21731;SDS011;11028;51.156;17.130;2022-12-18T20:34:06;155.10;;;49.03;;
21731;SDS011;11028;51.156;17.130;2022-12-18T20:41:26;164.85;;;49.22;;
21731;SDS011;11028;51.156;17.130;2022-12-18T20:48:49;172.45;;;52.97;;
21731;SDS011;11028;51.156;17.130;2022-12-18T20:56:08;162.30;;;49.13;;
21731;SDS011;11028;51.156;17.130;2022-12-18T21:03:29;169.90;;;50.53;;
21731;SDS011;11028;51.156;17.130;2022-12-18T21:10:50;136.02;;;44.88;;
21731;SDS011;11028;51.156;17.130;2022-12-18T21:18:09;138.70;;;42.67;;
21731;SDS011;11028;51.156;17.130;2022-12-18T21:25:31;140.20;;;44.55;;
21731;SDS011;11028;51.156;17.130;2022-12-18T21:32:49;142.90;;;46.08;;
21731;SDS011;11028;51.156;17.130;2022-12-18T21:40:08;120.97;;;41.53;;
21731;SDS011;11028;51.156;17.130;2022-12-18T21:47:28;133.30;;;42.55;;
21731;SDS011;11028;51.156;17.130;2022-12-18T21:54:47;146.93;;;45.33;;
21731;SDS011;11028;51.156;17.130;2022-12-18T22:02:07;137.85;;;43.47;;
21731;SDS011;11028;51.156;17.130;2022-12-18T22:09:30;118.40;;;42.60;;
21731;SDS011;11028;51.156;17.130;2022-12-18T22:16:50;138.95;;;48.13;;
21731;SDS011;11028;51.156;17.130;2022-12-18T22:24:23;145.82;;;47.75;;
21731;SDS011;11028;51.156;17.130;2022-12-18T22:31:44;130.98;;;47.28;;
21731;SDS011;11028;51.156;17.130;2022-12-18T22:39:03;148.90;;;48.33;;
21731;SDS011;11028;51.156;17.130;2022-12-18T22:46:24;138.80;;;44.87;;
21731;SDS011;11028;51.156;17.130;2022-12-18T22:53:44;154.07;;;52.00;;
21731;SDS011;11028;51.156;17.130;2022-12-18T23:01:03;127.45;;;46.47;;
21731;SDS011;11028;51.156;17.130;2022-12-18T23:08:22;137.85;;;44.63;;
21731;SDS011;11028;51.156;17.130;2022-12-18T23:15:42;148.48;;;47.92;;
21731;SDS011;11028;51.156;17.130;2022-12-18T23:23:03;158.85;;;52.47;;
21731;SDS011;11028;51.156;17.130;2022-12-18T23:30:23;148.30;;;53.88;;
21731;SDS011;11028;51.156;17.130;2022-12-18T23:37:42;189.00;;;62.42;;
21731;SDS011;11028;51.156;17.130;2022-12-18T23:45:16;145.63;;;50.92;;
21731;SDS011;11028;51.156;17.130;2022-12-18T23:52:45;148.13;;;55.10;;
